createdAt,value
2023-05-20T00:00:02.003Z,100.00
2023-05-20T00:02:29.827Z,100.00
2023-05-20T00:04:58.123Z,100.00
2023-05-20T00:07:29.001Z,100.00
2023-05-20T00:09:56.835Z,100.00
2023-05-20T00:12:24.418Z,100.00
2023-05-20T00:14:53.686Z,100.00
2023-05-20T00:17:21.881Z,100.00
2023-05-20T00:19:49.045Z,100.00
2023-05-20T00:22:25.532Z,100.00
2023-05-20T00:24:53.113Z,100.00
2023-05-20T00:27:20.966Z,100.00
2023-05-20T00:29:49.285Z,100.00
2023-05-20T00:32:17.368Z,100.00
2023-05-20T00:34:45.164Z,100.00
2023-05-20T00:37:13.140Z,100.00
2023-05-20T00:39:40.379Z,100.00
2023-05-20T00:42:16.997Z,100.00
2023-05-20T00:44:44.568Z,100.00
2023-05-20T00:47:12.786Z,100.00
2023-05-20T00:49:50.356Z,100.00
2023-05-20T00:52:19.281Z,100.00
2023-05-20T00:54:50.167Z,100.00
2023-05-20T00:57:31.138Z,100.00
2023-05-20T00:59:59.521Z,100.00
2023-05-20T01:02:27.871Z,100.00
2023-05-20T01:04:57.656Z,100.00
2023-05-20T01:07:28.632Z,100.00
2023-05-20T01:10:00.593Z,100.00
2023-05-20T01:12:35.566Z,100.00
2023-05-20T01:15:15.773Z,100.00
2023-05-20T01:17:53.439Z,100.00
2023-05-20T01:20:22.325Z,100.00
2023-05-20T01:22:59.424Z,100.00
2023-05-20T01:25:27.157Z,100.00
2023-05-20T01:27:56.952Z,100.00
2023-05-20T01:30:31.533Z,100.00
2023-05-20T01:33:05.683Z,100.00
2023-05-20T01:35:35.268Z,100.00
2023-05-20T01:38:07.820Z,100.00
2023-05-20T01:40:36.052Z,100.00
2023-05-20T01:43:04.865Z,100.00
2023-05-20T01:45:33.202Z,100.00
2023-05-20T01:48:02.400Z,100.00
2023-05-20T01:50:29.632Z,100.00
2023-05-20T01:52:57.164Z,100.00
2023-05-20T01:55:25.767Z,100.00
2023-05-20T01:57:53.888Z,100.00
2023-05-20T02:00:21.808Z,100.00
2023-05-20T02:02:48.905Z,100.00
2023-05-20T02:05:17.304Z,100.00
2023-05-20T02:07:45.589Z,100.00
2023-05-20T02:10:12.893Z,100.00
2023-05-20T02:12:40.906Z,100.00
2023-05-20T02:15:15.943Z,100.00
2023-05-20T02:17:44.212Z,100.00
2023-05-20T02:20:12.542Z,100.00
2023-05-20T02:22:40.111Z,100.00
2023-05-20T02:25:09.243Z,100.00
2023-05-20T02:27:40.069Z,100.00
2023-05-20T02:30:08.518Z,100.00
2023-05-20T02:32:36.104Z,100.00
2023-05-20T02:35:03.035Z,100.00
2023-05-20T02:37:30.591Z,100.00
2023-05-20T02:39:58.159Z,100.00
2023-05-20T02:42:25.129Z,100.00
2023-05-20T02:44:56.963Z,100.00
2023-05-20T02:47:26.691Z,100.00
2023-05-20T02:49:54.069Z,100.00
2023-05-20T02:52:22.125Z,100.00
2023-05-20T02:54:49.196Z,100.00
2023-05-20T02:57:16.610Z,100.00
2023-05-20T02:59:43.517Z,100.00
2023-05-20T03:02:10.376Z,100.00
2023-05-20T03:04:39.202Z,100.00
2023-05-20T03:07:07.915Z,100.00
2023-05-20T03:09:35.671Z,100.00
2023-05-20T03:12:02.587Z,100.00
2023-05-20T03:14:29.585Z,100.00
2023-05-20T03:16:56.373Z,100.00
2023-05-20T03:19:24.361Z,100.00
2023-05-20T03:21:54.193Z,100.00
2023-05-20T03:24:23.682Z,100.00
2023-05-20T03:26:53.794Z,100.00
2023-05-20T03:29:21.496Z,100.00
2023-05-20T03:31:48.690Z,100.00
2023-05-20T03:34:16.162Z,100.00
2023-05-20T03:36:43.042Z,100.00
2023-05-20T03:39:10.360Z,100.00
2023-05-20T03:41:38.545Z,100.00
2023-05-20T03:44:05.856Z,100.00
2023-05-20T03:46:34.852Z,100.00
2023-05-20T03:49:03.387Z,100.00
2023-05-20T03:51:33.369Z,100.00
2023-05-20T03:54:01.635Z,100.00
2023-05-20T03:56:29.000Z,100.00
2023-05-20T03:58:56.085Z,100.00
2023-05-20T04:01:26.015Z,100.00
2023-05-20T04:03:52.891Z,100.00
2023-05-20T04:06:19.921Z,100.00
2023-05-20T04:08:51.274Z,100.00
2023-05-20T04:11:18.596Z,100.00
2023-05-20T04:13:46.534Z,100.00
2023-05-20T04:16:13.498Z,100.00
2023-05-20T04:18:41.211Z,100.00
2023-05-20T04:21:08.686Z,100.00
2023-05-20T04:23:36.476Z,100.00
2023-05-20T04:26:03.766Z,100.00
2023-05-20T04:28:31.503Z,100.00
2023-05-20T04:31:00.358Z,100.00
2023-05-20T04:33:40.008Z,100.00
2023-05-20T04:36:16.574Z,100.00
2023-05-20T04:38:45.434Z,100.00
2023-05-20T04:41:12.358Z,100.00
2023-05-20T04:43:40.850Z,100.00
2023-05-20T04:46:08.030Z,100.00
2023-05-20T04:48:38.098Z,100.00
2023-05-20T04:51:05.005Z,100.00
2023-05-20T04:53:34.304Z,100.00
2023-05-20T04:56:01.423Z,100.00
2023-05-20T04:58:29.759Z,100.00
2023-05-20T05:00:56.840Z,99.20
2023-05-20T05:03:24.020Z,99.11
2023-05-20T05:05:51.198Z,100.00
2023-05-20T05:08:21.208Z,100.00
2023-05-20T05:10:48.170Z,100.00
2023-05-20T05:13:15.680Z,98.38
2023-05-20T05:15:42.524Z,97.00
2023-05-20T05:18:09.873Z,96.85
2023-05-20T05:20:37.013Z,95.85
2023-05-20T05:23:03.956Z,93.63
2023-05-20T05:25:31.262Z,94.84
2023-05-20T05:28:01.579Z,93.84
2023-05-20T05:30:28.746Z,94.30
2023-05-20T05:32:55.652Z,94.72
2023-05-20T05:35:22.599Z,95.92
2023-05-20T05:37:50.478Z,95.63
2023-05-20T05:40:17.709Z,98.43
2023-05-20T05:42:44.867Z,97.75
2023-05-20T05:45:14.776Z,99.58
2023-05-20T05:47:41.588Z,97.21
2023-05-20T05:50:13.430Z,92.30
2023-05-20T05:52:40.360Z,91.07
2023-05-20T05:55:11.090Z,91.08
2023-05-20T05:57:37.930Z,91.18
2023-05-20T06:00:05.970Z,85.40
2023-05-20T06:02:36.986Z,86.06
2023-05-20T06:05:04.708Z,86.30
2023-05-20T06:07:34.736Z,86.45
2023-05-20T06:10:02.436Z,84.56
2023-05-20T06:12:29.085Z,82.97
2023-05-20T06:14:56.359Z,84.94
2023-05-20T06:17:24.432Z,82.58
2023-05-20T06:19:55.117Z,80.48
2023-05-20T06:22:22.676Z,81.65
2023-05-20T06:24:49.471Z,80.92
2023-05-20T06:27:16.670Z,79.45
2023-05-20T06:29:44.048Z,80.24
2023-05-20T06:32:11.257Z,81.04
2023-05-20T06:35:12.555Z,80.59
2023-05-20T06:37:41.798Z,78.68
2023-05-20T06:40:09.924Z,78.87
2023-05-20T06:42:39.775Z,78.15
2023-05-20T06:45:10.963Z,77.59
2023-05-20T06:47:38.193Z,75.55
2023-05-20T06:50:05.607Z,75.84
2023-05-20T06:52:32.793Z,77.39
2023-05-20T06:54:59.560Z,77.43
2023-05-20T06:57:26.735Z,78.95
2023-05-20T06:59:53.461Z,79.64
2023-05-20T07:02:21.617Z,79.90
2023-05-20T07:04:49.380Z,79.75
2023-05-20T07:07:17.439Z,71.48
2023-05-20T07:09:44.468Z,70.44
2023-05-20T07:12:14.484Z,69.54
2023-05-20T07:14:44.801Z,68.08
2023-05-20T07:17:14.471Z,66.57
2023-05-20T07:19:41.720Z,65.61
2023-05-20T07:22:25.886Z,65.47
2023-05-20T07:24:53.623Z,68.91
2023-05-20T07:27:24.218Z,68.20
2023-05-20T07:29:51.535Z,71.15
2023-05-20T07:32:19.192Z,68.67
2023-05-20T07:34:46.165Z,69.21
2023-05-20T07:37:14.624Z,69.41
2023-05-20T07:39:41.724Z,69.96
2023-05-20T07:42:08.637Z,68.25
2023-05-20T07:44:38.742Z,67.70
2023-05-20T07:47:06.474Z,67.25
2023-05-20T07:49:33.806Z,72.32
2023-05-20T07:52:02.848Z,72.33
2023-05-20T07:54:35.367Z,71.68
2023-05-20T07:57:02.271Z,74.63
2023-05-20T07:59:32.297Z,75.75
2023-05-20T08:01:59.255Z,76.95
2023-05-20T08:04:27.919Z,72.04
2023-05-20T08:06:58.129Z,69.99
2023-05-20T08:09:25.053Z,68.46
2023-05-20T08:11:52.099Z,68.91
2023-05-20T08:14:19.640Z,67.68
2023-05-20T08:16:46.785Z,67.80
2023-05-20T08:19:13.998Z,66.56
2023-05-20T08:21:41.104Z,68.06
2023-05-20T08:24:08.351Z,69.99
2023-05-20T08:26:35.604Z,67.70
2023-05-20T08:29:02.453Z,67.18
2023-05-20T08:31:29.546Z,68.26
2023-05-20T08:33:58.743Z,68.57
2023-05-20T08:36:31.937Z,69.28
2023-05-20T08:38:58.678Z,69.53
2023-05-20T08:41:26.005Z,67.96
2023-05-20T08:43:54.235Z,65.94
2023-05-20T08:46:23.188Z,66.98
2023-05-20T08:48:50.660Z,70.75
2023-05-20T08:51:23.645Z,71.69
2023-05-20T08:53:51.367Z,71.80
2023-05-20T08:56:18.447Z,70.82
2023-05-20T08:58:48.355Z,72.85
2023-05-20T09:01:15.264Z,74.20
2023-05-20T09:03:42.302Z,72.01
2023-05-20T09:06:12.701Z,70.05
2023-05-20T09:08:39.782Z,69.40
2023-05-20T09:11:09.809Z,66.86
2023-05-20T09:13:36.675Z,66.81
2023-05-20T09:16:03.918Z,67.20
2023-05-20T09:18:31.615Z,68.23
2023-05-20T09:20:58.678Z,69.40
2023-05-20T09:23:26.078Z,67.81
2023-05-20T09:25:54.854Z,68.02
2023-05-20T09:28:27.945Z,66.75
2023-05-20T09:31:01.659Z,67.16
2023-05-20T09:33:30.360Z,69.07
2023-05-20T09:36:16.400Z,66.27
2023-05-20T09:38:45.653Z,66.32
2023-05-20T09:41:14.192Z,68.23
2023-05-20T09:43:45.846Z,66.94
2023-05-20T09:46:13.732Z,67.80
2023-05-20T09:48:41.184Z,66.06
2023-05-20T09:51:11.136Z,66.86
2023-05-20T09:53:38.083Z,67.54
2023-05-20T09:56:05.659Z,67.30
2023-05-20T09:58:36.300Z,68.78
2023-05-20T10:01:06.910Z,71.03
2023-05-20T10:03:34.462Z,71.48
2023-05-20T10:06:07.638Z,72.23
2023-05-20T10:09:01.165Z,70.76
2023-05-20T10:11:34.037Z,70.31
2023-05-20T10:14:19.078Z,71.02
2023-05-20T10:16:56.867Z,69.04
2023-05-20T10:19:35.966Z,66.99
2023-05-20T10:22:05.431Z,68.88
2023-05-20T10:24:41.536Z,68.83
2023-05-20T10:27:15.128Z,68.19
2023-05-20T10:30:00.968Z,71.55
2023-05-20T10:32:33.333Z,70.55
2023-05-20T10:35:05.591Z,68.64
2023-05-20T10:37:42.687Z,67.15
2023-05-20T10:40:15.189Z,73.52
2023-05-20T10:42:43.170Z,70.65
2023-05-20T10:45:10.961Z,69.39
2023-05-20T10:47:42.437Z,69.61
2023-05-20T10:50:28.038Z,69.45
2023-05-20T10:52:56.713Z,73.13
2023-05-20T10:55:23.930Z,71.81
2023-05-20T10:57:51.796Z,72.20
2023-05-20T11:00:22.118Z,71.53
2023-05-20T11:02:50.333Z,69.02
2023-05-20T11:05:18.211Z,66.79
2023-05-20T11:07:45.589Z,66.91
2023-05-20T11:10:12.530Z,66.71
2023-05-20T11:12:39.946Z,66.27
2023-05-20T11:15:12.462Z,65.24
2023-05-20T11:17:40.108Z,64.45
2023-05-20T11:20:08.032Z,64.26
2023-05-20T11:22:34.876Z,62.62
2023-05-20T11:25:08.201Z,59.93
2023-05-20T11:27:39.837Z,59.75
2023-05-20T11:30:08.062Z,57.24
2023-05-20T11:32:35.224Z,58.16
2023-05-20T11:35:10.094Z,56.55
2023-05-20T11:37:37.828Z,56.77
2023-05-20T11:40:10.173Z,55.70
2023-05-20T11:42:37.326Z,52.12
2023-05-20T11:45:04.463Z,51.36
2023-05-20T11:47:32.698Z,53.58
2023-05-20T11:49:59.912Z,53.15
2023-05-20T11:52:29.317Z,52.14
2023-05-20T11:54:57.108Z,50.83
2023-05-20T11:57:24.152Z,51.04
2023-05-20T11:59:51.263Z,52.49
2023-05-20T12:02:18.229Z,51.83
2023-05-20T12:04:45.199Z,54.43
2023-05-20T12:07:12.023Z,53.47
2023-05-20T12:09:38.803Z,54.40
2023-05-20T12:12:05.962Z,52.82
2023-05-20T12:14:33.021Z,55.42
2023-05-20T12:17:04.672Z,51.81
2023-05-20T12:19:33.693Z,52.32
2023-05-20T12:22:02.984Z,51.95
2023-05-20T12:24:30.037Z,53.22
2023-05-20T12:26:57.010Z,54.15
2023-05-20T12:29:25.205Z,53.03
2023-05-20T12:31:52.792Z,52.40
2023-05-20T12:34:19.570Z,55.09
2023-05-20T12:36:47.430Z,52.41
2023-05-20T12:39:18.094Z,51.60
2023-05-20T12:41:44.899Z,52.59
2023-05-20T12:44:11.669Z,52.89
2023-05-20T12:46:38.538Z,52.95
2023-05-20T12:49:05.481Z,51.38
2023-05-20T12:51:32.217Z,54.04
2023-05-20T12:53:59.408Z,55.17
2023-05-20T12:56:27.710Z,53.27
2023-05-20T12:58:54.702Z,53.36
2023-05-20T13:01:21.534Z,52.68
2023-05-20T13:03:52.959Z,53.08
2023-05-20T13:06:20.169Z,52.66
2023-05-20T13:08:46.960Z,52.75
2023-05-20T13:11:14.297Z,53.80
2023-05-20T13:13:41.735Z,54.58
2023-05-20T13:16:10.434Z,54.21
2023-05-20T13:18:37.366Z,54.50
2023-05-20T13:21:04.290Z,55.40
2023-05-20T13:23:31.137Z,57.25
2023-05-20T13:25:58.264Z,54.08
2023-05-20T13:28:25.074Z,54.22
2023-05-20T13:30:52.230Z,57.10
2023-05-20T13:33:19.199Z,55.54
2023-05-20T13:35:46.432Z,54.04
2023-05-20T13:38:13.440Z,52.47
2023-05-20T13:40:40.497Z,54.68
2023-05-20T13:43:07.373Z,56.61
2023-05-20T13:45:36.348Z,53.67
2023-05-20T13:48:03.551Z,53.00
2023-05-20T13:50:32.914Z,53.22
2023-05-20T13:53:00.054Z,52.98
2023-05-20T13:55:44.244Z,52.59
2023-05-20T13:58:15.148Z,55.63
2023-05-20T14:00:42.602Z,54.90
2023-05-20T14:03:13.723Z,53.03
2023-05-20T14:05:41.070Z,53.28
2023-05-20T14:08:08.506Z,51.33
2023-05-20T14:10:35.543Z,52.03
2023-05-20T14:13:03.114Z,53.90
2023-05-20T14:15:33.029Z,54.42
2023-05-20T14:18:00.071Z,54.02
2023-05-20T14:20:27.017Z,54.95
2023-05-20T14:22:53.920Z,56.14
2023-05-20T14:25:20.864Z,57.81
2023-05-20T14:27:48.415Z,56.61
2023-05-20T14:30:15.250Z,54.44
2023-05-20T14:32:47.315Z,57.23
2023-05-20T14:35:14.377Z,59.34
2023-05-20T14:37:41.901Z,56.50
2023-05-20T14:40:09.227Z,60.21
2023-05-20T14:42:46.158Z,71.71
2023-05-20T14:45:13.857Z,78.16
2023-05-20T14:47:41.198Z,83.11
2023-05-20T14:50:08.685Z,86.34
2023-05-20T14:52:35.918Z,91.33
2023-05-20T14:55:03.139Z,93.58
2023-05-20T14:57:30.075Z,97.70
2023-05-20T15:00:00.181Z,100.00
2023-05-20T15:02:27.603Z,100.00
2023-05-20T15:04:55.113Z,100.00
2023-05-20T15:07:23.011Z,100.00
2023-05-20T15:09:50.232Z,100.00
2023-05-20T15:12:17.778Z,100.00
2023-05-20T15:14:45.266Z,100.00
2023-05-20T15:17:18.673Z,100.00
2023-05-20T15:19:55.601Z,100.00
2023-05-20T15:22:23.083Z,100.00
2023-05-20T15:24:50.574Z,100.00
2023-05-20T15:27:18.178Z,100.00
2023-05-20T15:29:53.013Z,100.00
2023-05-20T15:32:22.178Z,100.00
2023-05-20T15:34:50.774Z,100.00
2023-05-20T15:37:24.733Z,100.00
2023-05-20T15:39:52.466Z,100.00
2023-05-20T15:42:35.017Z,100.00
2023-05-20T15:45:02.597Z,100.00
2023-05-20T15:47:39.162Z,100.00
2023-05-20T15:50:12.922Z,100.00
2023-05-20T15:52:41.168Z,100.00
2023-05-20T15:55:09.890Z,100.00
2023-05-20T15:57:38.362Z,100.00
2023-05-20T16:00:13.369Z,100.00
2023-05-20T16:02:47.470Z,100.00
2023-05-20T16:05:17.117Z,100.00
2023-05-20T16:07:48.492Z,100.00
2023-05-20T16:10:20.088Z,100.00
2023-05-20T16:12:57.452Z,100.00
2023-05-20T16:15:28.346Z,100.00
2023-05-20T16:17:56.766Z,100.00
2023-05-20T16:20:24.776Z,100.00
2023-05-20T16:23:02.534Z,100.00
2023-05-20T16:25:35.879Z,100.00
2023-05-20T16:28:17.542Z,100.00
2023-05-20T16:30:51.642Z,100.00
2023-05-20T16:33:22.504Z,100.00
2023-05-20T16:35:50.209Z,100.00
2023-05-20T16:38:25.688Z,100.00
2023-05-20T16:40:54.026Z,100.00
2023-05-20T16:43:59.234Z,100.00
2023-05-20T16:46:35.061Z,100.00
2023-05-20T16:49:02.802Z,100.00
2023-05-20T16:51:34.743Z,100.00
2023-05-20T16:54:03.621Z,100.00
2023-05-20T16:56:31.609Z,100.00
2023-05-20T16:59:00.159Z,100.00
2023-05-20T17:01:42.237Z,100.00
2023-05-20T17:04:16.209Z,100.00
2023-05-20T17:06:46.574Z,100.00
2023-05-20T17:09:14.066Z,100.00
2023-05-20T17:11:47.944Z,100.00
2023-05-20T17:14:15.397Z,100.00
2023-05-20T17:16:47.080Z,100.00
2023-05-20T17:19:25.276Z,100.00
2023-05-20T17:21:55.579Z,100.00
2023-05-20T17:24:25.740Z,100.00
2023-05-20T17:26:53.278Z,100.00
2023-05-20T17:29:20.892Z,100.00
2023-05-20T17:31:47.846Z,100.00
2023-05-20T17:34:17.781Z,100.00
2023-05-20T17:36:48.500Z,100.00
2023-05-20T17:39:17.110Z,100.00
2023-05-20T17:41:44.580Z,100.00
2023-05-20T17:44:11.759Z,100.00
2023-05-20T17:46:39.278Z,100.00
2023-05-20T17:49:06.782Z,100.00
2023-05-20T17:51:34.803Z,100.00
2023-05-20T17:54:02.137Z,100.00
2023-05-20T17:56:29.845Z,100.00
2023-05-20T17:58:58.006Z,100.00
2023-05-20T18:01:42.854Z,100.00
2023-05-20T18:04:19.241Z,100.00
2023-05-20T18:06:46.692Z,100.00
2023-05-20T18:09:14.218Z,100.00
2023-05-20T18:11:48.089Z,100.00
2023-05-20T18:14:17.336Z,100.00
2023-05-20T18:16:49.236Z,100.00
2023-05-20T18:19:19.838Z,100.00
2023-05-20T18:21:47.965Z,100.00
2023-05-20T18:24:17.175Z,100.00
2023-05-20T18:26:45.508Z,100.00
2023-05-20T18:29:23.581Z,100.00
2023-05-20T18:31:54.188Z,100.00
2023-05-20T18:34:24.263Z,100.00
2023-05-20T18:36:52.063Z,100.00
2023-05-20T18:39:21.984Z,100.00
2023-05-20T18:41:55.607Z,100.00
2023-05-20T18:44:23.364Z,100.00
2023-05-20T18:46:54.589Z,100.00
2023-05-20T18:49:22.369Z,100.00
2023-05-20T18:51:50.671Z,100.00
2023-05-20T18:54:21.386Z,100.00
2023-05-20T18:56:49.877Z,100.00
2023-05-20T18:59:18.335Z,100.00
2023-05-20T19:01:45.915Z,100.00
2023-05-20T19:04:14.346Z,100.00
2023-05-20T19:06:54.567Z,100.00
2023-05-20T19:09:34.229Z,100.00
2023-05-20T19:12:14.546Z,100.00
2023-05-20T19:14:46.189Z,100.00
2023-05-20T19:17:18.479Z,100.00
2023-05-20T19:19:49.473Z,100.00
2023-05-20T19:22:18.003Z,100.00
2023-05-20T19:25:04.921Z,100.00
2023-05-20T19:27:38.508Z,100.00
2023-05-20T19:30:11.025Z,100.00
2023-05-20T19:32:48.428Z,100.00
2023-05-20T19:35:22.073Z,100.00
2023-05-20T19:37:52.325Z,100.00
2023-05-20T19:40:28.065Z,100.00
2023-05-20T19:43:05.114Z,100.00
2023-05-20T19:45:39.522Z,100.00
2023-05-20T19:48:08.051Z,100.00
2023-05-20T19:50:39.455Z,100.00
2023-05-20T19:53:08.049Z,100.00
2023-05-20T19:55:36.825Z,100.00
2023-05-20T19:58:08.079Z,100.00
2023-05-20T20:00:43.999Z,100.00
2023-05-20T20:03:12.708Z,100.00
2023-05-20T20:05:46.547Z,100.00
2023-05-20T20:08:24.853Z,100.00
2023-05-20T20:10:56.282Z,100.00
2023-05-20T20:13:24.564Z,100.00
2023-05-20T20:18:40.660Z,100.00
2023-05-20T20:21:11.291Z,100.00
2023-05-20T20:23:43.436Z,100.00
2023-05-20T20:26:14.140Z,100.00
2023-05-20T20:28:52.070Z,100.00
2023-05-20T20:31:18.844Z,100.00
2023-05-20T20:33:49.218Z,100.00
2023-05-20T20:36:17.498Z,100.00
2023-05-20T20:38:47.366Z,100.00
2023-05-20T20:41:17.717Z,100.00
2023-05-20T20:43:45.739Z,100.00
2023-05-20T20:46:16.159Z,100.00
2023-05-20T20:48:48.081Z,100.00
2023-05-20T20:51:27.912Z,100.00
2023-05-20T20:53:55.872Z,100.00
2023-05-20T20:56:26.507Z,100.00
2023-05-20T20:58:54.510Z,100.00
2023-05-20T21:01:21.353Z,100.00
2023-05-20T21:03:48.649Z,100.00
2023-05-20T21:06:16.126Z,100.00
2023-05-20T21:08:44.050Z,100.00
2023-05-20T21:11:12.350Z,100.00
2023-05-20T21:13:39.948Z,100.00
2023-05-20T21:16:10.830Z,100.00
2023-05-20T21:18:41.645Z,100.00
2023-05-20T21:21:13.153Z,100.00
2023-05-20T21:23:40.931Z,100.00
2023-05-20T21:26:14.034Z,100.00
2023-05-20T21:28:41.386Z,100.00
2023-05-20T21:31:09.073Z,100.00
2023-05-20T21:33:36.101Z,100.00
2023-05-20T21:36:04.397Z,100.00
2023-05-20T21:38:34.767Z,100.00
2023-05-20T21:41:08.466Z,100.00
2023-05-20T21:43:48.682Z,100.00
2023-05-20T21:46:34.514Z,100.00
2023-05-20T21:49:01.624Z,100.00
2023-05-20T21:51:29.581Z,100.00
2023-05-20T21:53:56.940Z,100.00
2023-05-20T21:56:24.561Z,100.00
2023-05-20T21:58:54.687Z,100.00
2023-05-20T22:01:21.808Z,100.00
2023-05-20T22:03:51.481Z,100.00
2023-05-20T22:06:22.612Z,100.00
2023-05-20T22:08:50.138Z,100.00
2023-05-20T22:11:17.572Z,100.00
2023-05-20T22:13:46.075Z,100.00
2023-05-20T22:16:14.720Z,100.00
2023-05-20T22:18:43.618Z,100.00
2023-05-20T22:21:12.273Z,100.00
2023-05-20T22:23:41.168Z,100.00
2023-05-20T22:26:12.025Z,100.00
2023-05-20T22:28:39.879Z,100.00
2023-05-20T22:31:07.462Z,100.00
2023-05-20T22:33:36.752Z,100.00
2023-05-20T22:36:05.194Z,100.00
2023-05-20T22:38:33.322Z,100.00
2023-05-20T22:41:01.321Z,100.00
2023-05-20T22:43:29.651Z,100.00
2023-05-20T22:45:57.087Z,100.00
2023-05-20T22:48:25.016Z,100.00
2023-05-20T22:50:56.074Z,100.00
2023-05-20T22:53:23.979Z,100.00
2023-05-20T22:55:51.937Z,100.00
2023-05-20T22:58:19.610Z,100.00
2023-05-20T23:00:46.556Z,100.00
2023-05-20T23:03:13.994Z,100.00
2023-05-20T23:05:40.749Z,100.00
2023-05-20T23:08:07.746Z,100.00
2023-05-20T23:10:37.953Z,100.00
2023-05-20T23:13:05.281Z,100.00
2023-05-20T23:15:32.836Z,100.00
2023-05-20T23:17:59.847Z,100.00
2023-05-20T23:20:29.852Z,100.00
2023-05-20T23:22:58.003Z,100.00
2023-05-20T23:25:25.565Z,100.00
2023-05-20T23:27:53.783Z,100.00
2023-05-20T23:30:23.234Z,100.00
2023-05-20T23:33:25.190Z,100.00
2023-05-20T23:35:56.810Z,100.00
2023-05-20T23:38:27.583Z,100.00
2023-05-20T23:40:55.720Z,100.00
2023-05-20T23:43:22.758Z,100.00
2023-05-20T23:46:00.349Z,100.00
2023-05-20T23:48:28.062Z,100.00
2023-05-20T23:50:57.832Z,100.00
2023-05-20T23:53:26.233Z,100.00
2023-05-20T23:55:54.442Z,100.00
2023-05-20T23:58:22.557Z,100.00
